BL8 weather

CLOSED Yoyo Airport
Yoyo, British Columbia, Canada

Public forecast

Using degrees Celsius for public forecast. Weather courtesy of forecast.io.

Closest aviation weather report (METAR) to Yoyo Airport

Closest report is Fort Nelson Airport, 35.3 nm (65.3 km) W. Retrieved 2019/10/23 22:00 UTC (38 minutes ago):

CYYE 232200Z 11008KT 30SM BKN140 BKN200 02/M01 A3006 RMK AC5CI3 SLP202

Closest aviation forecast (TAF) to Yoyo Airport

Closest forecast is Fort Nelson Airport, 35.3 nm (65.3 km) W. Retrieved 2019/10/23 19:42 UTC (3 hours ago):

TAF TAF CYYE 231838Z 2319/2407 VRB03KT P6SM SCT230 BECMG 2319/2321 18006KT FM240000 VRB03KT P6SM BKN120 FM240200 VRB03KT P6SM SCT025 OVC060 TEMPO 2402/2407 P6SM -RA BKN020 OVC050 RMK NXT FCST BY 240100Z